sensor_id;sensor_type;location;lat;lon;timestamp;temperature;humidity
4548;DHT22;2286;51.570;7.090;2023-04-25T00:02:00;6.50;99.90
4548;DHT22;2286;51.570;7.090;2023-04-25T00:04:30;6.50;99.90
4548;DHT22;2286;51.570;7.090;2023-04-25T00:06:59;6.60;99.90
4548;DHT22;2286;51.570;7.090;2023-04-25T00:09:27;6.60;99.90
4548;DHT22;2286;51.570;7.090;2023-04-25T00:11:54;6.50;1.00
4548;DHT22;2286;51.570;7.090;2023-04-25T00:14:21;6.50;1.00
4548;DHT22;2286;51.570;7.090;2023-04-25T00:16:48;6.50;1.00
4548;DHT22;2286;51.570;7.090;2023-04-25T00:19:17;6.50;1.00
4548;DHT22;2286;51.570;7.090;2023-04-25T00:21:45;6.60;1.00
4548;DHT22;2286;51.570;7.090;2023-04-25T00:24:12;6.60;1.00
4548;DHT22;2286;51.570;7.090;2023-04-25T00:26:39;6.60;1.00
4548;DHT22;2286;51.570;7.090;2023-04-25T00:29:06;6.60;14.40
4548;DHT22;2286;51.570;7.090;2023-04-25T00:31:33;6.60;98.10
4548;DHT22;2286;51.570;7.090;2023-04-25T00:34:00;6.70;99.90
4548;DHT22;2286;51.570;7.090;2023-04-25T00:36:27;6.70;77.20
4548;DHT22;2286;51.570;7.090;2023-04-25T00:38:55;6.70;99.10
4548;DHT22;2286;51.570;7.090;2023-04-25T00:41:22;6.70;75.80
4548;DHT22;2286;51.570;7.090;2023-04-25T00:43:51;6.70;99.90
4548;DHT22;2286;51.570;7.090;2023-04-25T00:46:18;6.70;99.90
4548;DHT22;2286;51.570;7.090;2023-04-25T00:48:45;6.70;99.90
4548;DHT22;2286;51.570;7.090;2023-04-25T00:51:15;6.70;1.00
4548;DHT22;2286;51.570;7.090;2023-04-25T00:53:43;6.70;1.00
4548;DHT22;2286;51.570;7.090;2023-04-25T00:56:11;6.60;1.00
4548;DHT22;2286;51.570;7.090;2023-04-25T00:58:38;6.70;1.00
4548;DHT22;2286;51.570;7.090;2023-04-25T01:01:06;6.60;1.00
4548;DHT22;2286;51.570;7.090;2023-04-25T01:03:37;6.70;1.00
4548;DHT22;2286;51.570;7.090;2023-04-25T01:06:07;6.70;13.90
4548;DHT22;2286;51.570;7.090;2023-04-25T01:08:34;6.70;56.30
4548;DHT22;2286;51.570;7.090;2023-04-25T01:11:01;6.60;99.90
4548;DHT22;2286;51.570;7.090;2023-04-25T01:13:29;6.60;99.90
4548;DHT22;2286;51.570;7.090;2023-04-25T01:15:57;6.60;99.90
4548;DHT22;2286;51.570;7.090;2023-04-25T01:18:24;6.70;99.90
4548;DHT22;2286;51.570;7.090;2023-04-25T01:20:52;6.70;99.90
4548;DHT22;2286;51.570;7.090;2023-04-25T01:23:21;6.70;99.90
4548;DHT22;2286;51.570;7.090;2023-04-25T01:25:48;6.70;99.90
4548;DHT22;2286;51.570;7.090;2023-04-25T01:28:16;6.70;99.90
4548;DHT22;2286;51.570;7.090;2023-04-25T01:30:43;6.70;99.90
4548;DHT22;2286;51.570;7.090;2023-04-25T01:33:10;6.70;99.90
4548;DHT22;2286;51.570;7.090;2023-04-25T01:35:37;6.70;99.90
4548;DHT22;2286;51.570;7.090;2023-04-25T01:38:05;6.70;1.00
4548;DHT22;2286;51.570;7.090;2023-04-25T01:40:34;6.60;1.00
4548;DHT22;2286;51.570;7.090;2023-04-25T01:43:02;6.60;99.90
4548;DHT22;2286;51.570;7.090;2023-04-25T01:45:29;6.60;8.30
4548;DHT22;2286;51.570;7.090;2023-04-25T01:47:56;6.60;1.00
4548;DHT22;2286;51.570;7.090;2023-04-25T01:50:25;6.60;1.00
4548;DHT22;2286;51.570;7.090;2023-04-25T01:52:52;6.50;90.80
4548;DHT22;2286;51.570;7.090;2023-04-25T01:55:19;6.50;69.30
4548;DHT22;2286;51.570;7.090;2023-04-25T01:57:47;6.50;99.90
4548;DHT22;2286;51.570;7.090;2023-04-25T02:00:14;6.50;99.90
4548;DHT22;2286;51.570;7.090;2023-04-25T02:02:41;6.50;1.00
4548;DHT22;2286;51.570;7.090;2023-04-25T02:05:08;6.50;1.00
4548;DHT22;2286;51.570;7.090;2023-04-25T02:07:36;6.50;1.00
4548;DHT22;2286;51.570;7.090;2023-04-25T02:10:03;6.50;1.00
4548;DHT22;2286;51.570;7.090;2023-04-25T02:12:31;6.50;1.00
4548;DHT22;2286;51.570;7.090;2023-04-25T02:14:59;6.50;99.90
4548;DHT22;2286;51.570;7.090;2023-04-25T02:17:26;6.50;13.40
4548;DHT22;2286;51.570;7.090;2023-04-25T02:19:53;6.40;99.90
4548;DHT22;2286;51.570;7.090;2023-04-25T02:22:20;6.40;99.90
4548;DHT22;2286;51.570;7.090;2023-04-25T02:24:47;6.40;1.00
4548;DHT22;2286;51.570;7.090;2023-04-25T02:27:13;6.40;1.00
4548;DHT22;2286;51.570;7.090;2023-04-25T02:29:40;6.30;99.90
4548;DHT22;2286;51.570;7.090;2023-04-25T02:32:08;6.30;1.00
4548;DHT22;2286;51.570;7.090;2023-04-25T02:34:35;6.30;1.00
4548;DHT22;2286;51.570;7.090;2023-04-25T02:37:02;6.30;1.00
4548;DHT22;2286;51.570;7.090;2023-04-25T02:39:29;6.30;1.00
4548;DHT22;2286;51.570;7.090;2023-04-25T02:41:56;6.30;1.00
4548;DHT22;2286;51.570;7.090;2023-04-25T02:44:23;6.30;1.00
4548;DHT22;2286;51.570;7.090;2023-04-25T02:46:50;6.30;1.00
4548;DHT22;2286;51.570;7.090;2023-04-25T02:49:18;6.30;1.00
4548;DHT22;2286;51.570;7.090;2023-04-25T02:51:45;6.30;1.00
4548;DHT22;2286;51.570;7.090;2023-04-25T02:54:12;6.30;1.00
4548;DHT22;2286;51.570;7.090;2023-04-25T02:56:39;6.30;1.00
4548;DHT22;2286;51.570;7.090;2023-04-25T02:59:06;6.30;1.00
4548;DHT22;2286;51.570;7.090;2023-04-25T03:01:32;6.30;1.00
4548;DHT22;2286;51.570;7.090;2023-04-25T03:03:59;6.30;1.00
4548;DHT22;2286;51.570;7.090;2023-04-25T03:06:28;6.30;1.00
4548;DHT22;2286;51.570;7.090;2023-04-25T03:08:54;6.20;1.00
4548;DHT22;2286;51.570;7.090;2023-04-25T03:11:21;6.20;83.20
4548;DHT22;2286;51.570;7.090;2023-04-25T03:13:48;6.30;95.00
4548;DHT22;2286;51.570;7.090;2023-04-25T03:16:15;6.30;99.90
4548;DHT22;2286;51.570;7.090;2023-04-25T03:18:41;6.30;99.90
4548;DHT22;2286;51.570;7.090;2023-04-25T03:21:08;6.20;99.90
4548;DHT22;2286;51.570;7.090;2023-04-25T03:23:36;6.30;1.00
4548;DHT22;2286;51.570;7.090;2023-04-25T03:26:03;6.30;1.00
4548;DHT22;2286;51.570;7.090;2023-04-25T03:28:30;6.30;1.00
4548;DHT22;2286;51.570;7.090;2023-04-25T03:30:57;6.30;1.00
4548;DHT22;2286;51.570;7.090;2023-04-25T03:33:24;6.30;1.00
4548;DHT22;2286;51.570;7.090;2023-04-25T03:35:50;6.30;1.00
4548;DHT22;2286;51.570;7.090;2023-04-25T03:38:17;6.30;1.00
4548;DHT22;2286;51.570;7.090;2023-04-25T03:40:45;6.30;1.00
4548;DHT22;2286;51.570;7.090;2023-04-25T03:43:12;6.30;1.00
4548;DHT22;2286;51.570;7.090;2023-04-25T03:45:39;6.20;1.00
4548;DHT22;2286;51.570;7.090;2023-04-25T03:48:06;6.10;1.00
4548;DHT22;2286;51.570;7.090;2023-04-25T03:50:32;5.90;1.00
4548;DHT22;2286;51.570;7.090;2023-04-25T03:52:59;5.80;99.90
4548;DHT22;2286;51.570;7.090;2023-04-25T03:55:26;5.70;99.90
4548;DHT22;2286;51.570;7.090;2023-04-25T03:57:54;5.60;1.00
4548;DHT22;2286;51.570;7.090;2023-04-25T04:00:21;5.60;1.00
4548;DHT22;2286;51.570;7.090;2023-04-25T04:02:48;5.60;1.00
4548;DHT22;2286;51.570;7.090;2023-04-25T04:05:14;5.50;1.00
4548;DHT22;2286;51.570;7.090;2023-04-25T04:07:41;5.50;1.00
4548;DHT22;2286;51.570;7.090;2023-04-25T04:10:09;5.40;48.00
4548;DHT22;2286;51.570;7.090;2023-04-25T04:12:36;5.40;99.90
4548;DHT22;2286;51.570;7.090;2023-04-25T04:15:05;5.40;99.90
4548;DHT22;2286;51.570;7.090;2023-04-25T04:17:33;5.40;99.90
4548;DHT22;2286;51.570;7.090;2023-04-25T04:20:00;5.30;99.90
4548;DHT22;2286;51.570;7.090;2023-04-25T04:22:27;5.40;1.00
4548;DHT22;2286;51.570;7.090;2023-04-25T04:24:53;5.40;99.90
4548;DHT22;2286;51.570;7.090;2023-04-25T04:27:22;5.50;32.80
4548;DHT22;2286;51.570;7.090;2023-04-25T04:29:49;5.60;1.00
4548;DHT22;2286;51.570;7.090;2023-04-25T04:32:19;5.60;1.00
4548;DHT22;2286;51.570;7.090;2023-04-25T04:34:45;5.60;1.00
4548;DHT22;2286;51.570;7.090;2023-04-25T04:37:14;5.70;1.00
4548;DHT22;2286;51.570;7.090;2023-04-25T04:39:41;5.70;1.00
4548;DHT22;2286;51.570;7.090;2023-04-25T04:42:08;5.70;1.00
4548;DHT22;2286;51.570;7.090;2023-04-25T04:44:36;5.70;1.00
4548;DHT22;2286;51.570;7.090;2023-04-25T04:47:04;5.70;1.00
4548;DHT22;2286;51.570;7.090;2023-04-25T04:49:33;5.70;1.00
4548;DHT22;2286;51.570;7.090;2023-04-25T04:52:00;5.60;1.00
4548;DHT22;2286;51.570;7.090;2023-04-25T04:54:26;5.60;1.00
4548;DHT22;2286;51.570;7.090;2023-04-25T04:56:53;5.60;1.00
4548;DHT22;2286;51.570;7.090;2023-04-25T04:59:20;5.70;99.90
4548;DHT22;2286;51.570;7.090;2023-04-25T05:01:47;5.70;1.00
4548;DHT22;2286;51.570;7.090;2023-04-25T05:04:15;5.80;1.00
4548;DHT22;2286;51.570;7.090;2023-04-25T05:06:43;5.90;47.30
4548;DHT22;2286;51.570;7.090;2023-04-25T05:09:10;6.00;8.10
4548;DHT22;2286;51.570;7.090;2023-04-25T05:11:37;6.00;99.90
4548;DHT22;2286;51.570;7.090;2023-04-25T05:14:03;6.10;99.90
4548;DHT22;2286;51.570;7.090;2023-04-25T05:16:30;6.10;1.00
4548;DHT22;2286;51.570;7.090;2023-04-25T05:18:57;6.10;1.00
4548;DHT22;2286;51.570;7.090;2023-04-25T05:21:24;6.20;1.00
4548;DHT22;2286;51.570;7.090;2023-04-25T05:23:52;6.20;1.00
4548;DHT22;2286;51.570;7.090;2023-04-25T05:26:20;6.20;96.90
4548;DHT22;2286;51.570;7.090;2023-04-25T05:28:46;6.20;99.90
4548;DHT22;2286;51.570;7.090;2023-04-25T05:31:13;6.30;99.90
4548;DHT22;2286;51.570;7.090;2023-04-25T05:33:40;6.30;99.90
4548;DHT22;2286;51.570;7.090;2023-04-25T05:36:07;6.30;99.90
4548;DHT22;2286;51.570;7.090;2023-04-25T05:38:34;6.40;1.00
4548;DHT22;2286;51.570;7.090;2023-04-25T05:41:02;6.50;1.00
4548;DHT22;2286;51.570;7.090;2023-04-25T05:43:29;6.50;99.90
4548;DHT22;2286;51.570;7.090;2023-04-25T05:45:56;6.50;1.00
4548;DHT22;2286;51.570;7.090;2023-04-25T05:48:23;6.50;1.00
4548;DHT22;2286;51.570;7.090;2023-04-25T05:50:50;6.60;99.90
4548;DHT22;2286;51.570;7.090;2023-04-25T05:53:17;6.60;1.00
4548;DHT22;2286;51.570;7.090;2023-04-25T05:55:44;6.60;1.00
4548;DHT22;2286;51.570;7.090;2023-04-25T05:58:12;6.60;1.00
4548;DHT22;2286;51.570;7.090;2023-04-25T06:00:39;6.60;1.00
4548;DHT22;2286;51.570;7.090;2023-04-25T06:03:07;6.70;99.90
4548;DHT22;2286;51.570;7.090;2023-04-25T06:05:35;6.60;99.90
4548;DHT22;2286;51.570;7.090;2023-04-25T06:08:02;6.60;99.90
4548;DHT22;2286;51.570;7.090;2023-04-25T06:10:28;6.60;99.90
4548;DHT22;2286;51.570;7.090;2023-04-25T06:12:55;6.70;1.00
4548;DHT22;2286;51.570;7.090;2023-04-25T06:15:23;6.90;99.90
4548;DHT22;2286;51.570;7.090;2023-04-25T06:17:50;7.10;1.00
4548;DHT22;2286;51.570;7.090;2023-04-25T06:20:17;7.20;1.00
4548;DHT22;2286;51.570;7.090;2023-04-25T06:22:48;7.40;99.90
4548;DHT22;2286;51.570;7.090;2023-04-25T06:25:15;7.60;99.90
4548;DHT22;2286;51.570;7.090;2023-04-25T06:27:42;7.60;99.90
4548;DHT22;2286;51.570;7.090;2023-04-25T06:30:09;7.80;99.90
4548;DHT22;2286;51.570;7.090;2023-04-25T06:32:38;7.70;99.90
4548;DHT22;2286;51.570;7.090;2023-04-25T06:35:06;7.70;99.90
4548;DHT22;2286;51.570;7.090;2023-04-25T06:37:33;7.70;99.90
4548;DHT22;2286;51.570;7.090;2023-04-25T06:40:00;7.70;1.00
4548;DHT22;2286;51.570;7.090;2023-04-25T06:42:27;7.70;1.00
4548;DHT22;2286;51.570;7.090;2023-04-25T06:44:54;7.50;1.00
4548;DHT22;2286;51.570;7.090;2023-04-25T06:47:21;7.30;1.00
4548;DHT22;2286;51.570;7.090;2023-04-25T06:49:49;7.30;1.00
4548;DHT22;2286;51.570;7.090;2023-04-25T06:52:16;7.30;78.30
4548;DHT22;2286;51.570;7.090;2023-04-25T06:54:44;7.30;99.90
4548;DHT22;2286;51.570;7.090;2023-04-25T06:57:10;7.50;99.90
4548;DHT22;2286;51.570;7.090;2023-04-25T06:59:37;7.60;93.40
4548;DHT22;2286;51.570;7.090;2023-04-25T07:02:04;7.60;1.00
4548;DHT22;2286;51.570;7.090;2023-04-25T07:04:31;7.70;1.00
4548;DHT22;2286;51.570;7.090;2023-04-25T07:06:59;7.80;1.00
4548;DHT22;2286;51.570;7.090;2023-04-25T07:09:28;7.90;1.00
4548;DHT22;2286;51.570;7.090;2023-04-25T07:11:55;8.00;1.00
4548;DHT22;2286;51.570;7.090;2023-04-25T07:14:22;8.10;1.00
4548;DHT22;2286;51.570;7.090;2023-04-25T07:16:49;8.30;1.00
4548;DHT22;2286;51.570;7.090;2023-04-25T07:19:16;8.30;66.10
4548;DHT22;2286;51.570;7.090;2023-04-25T07:21:43;8.40;1.00
4548;DHT22;2286;51.570;7.090;2023-04-25T07:24:11;8.50;99.90
4548;DHT22;2286;51.570;7.090;2023-04-25T07:26:37;8.60;99.90
4548;DHT22;2286;51.570;7.090;2023-04-25T07:29:04;8.60;1.00
4548;DHT22;2286;51.570;7.090;2023-04-25T07:31:31;8.70;1.00
4548;DHT22;2286;51.570;7.090;2023-04-25T07:33:58;8.60;1.00
4548;DHT22;2286;51.570;7.090;2023-04-25T07:36:24;8.70;1.00
4548;DHT22;2286;51.570;7.090;2023-04-25T07:38:51;8.90;99.90
4548;DHT22;2286;51.570;7.090;2023-04-25T07:41:20;8.80;99.90
4548;DHT22;2286;51.570;7.090;2023-04-25T07:43:46;8.90;1.00
4548;DHT22;2286;51.570;7.090;2023-04-25T07:46:13;9.00;99.90
4548;DHT22;2286;51.570;7.090;2023-04-25T07:48:40;9.10;99.90
4548;DHT22;2286;51.570;7.090;2023-04-25T07:51:07;9.10;1.00
4548;DHT22;2286;51.570;7.090;2023-04-25T07:53:34;9.00;1.00
4548;DHT22;2286;51.570;7.090;2023-04-25T07:56:03;9.10;47.10
4548;DHT22;2286;51.570;7.090;2023-04-25T07:58:31;9.20;1.00
4548;DHT22;2286;51.570;7.090;2023-04-25T08:00:58;9.20;1.00
4548;DHT22;2286;51.570;7.090;2023-04-25T08:03:24;9.30;1.00
4548;DHT22;2286;51.570;7.090;2023-04-25T08:05:51;9.50;1.00
4548;DHT22;2286;51.570;7.090;2023-04-25T08:08:18;9.70;99.90
4548;DHT22;2286;51.570;7.090;2023-04-25T08:10:45;9.60;99.90
4548;DHT22;2286;51.570;7.090;2023-04-25T08:13:13;9.50;99.90
4548;DHT22;2286;51.570;7.090;2023-04-25T08:15:41;9.40;99.90
4548;DHT22;2286;51.570;7.090;2023-04-25T08:18:08;9.40;1.00
4548;DHT22;2286;51.570;7.090;2023-04-25T08:20:35;9.40;99.90
4548;DHT22;2286;51.570;7.090;2023-04-25T08:23:02;9.40;1.00
4548;DHT22;2286;51.570;7.090;2023-04-25T08:25:29;9.50;99.90
4548;DHT22;2286;51.570;7.090;2023-04-25T08:27:55;9.60;99.90
4548;DHT22;2286;51.570;7.090;2023-04-25T08:30:22;9.80;99.90
4548;DHT22;2286;51.570;7.090;2023-04-25T08:32:50;10.00;99.90
4548;DHT22;2286;51.570;7.090;2023-04-25T08:35:17;10.00;99.90
4548;DHT22;2286;51.570;7.090;2023-04-25T08:37:44;10.10;99.90
4548;DHT22;2286;51.570;7.090;2023-04-25T08:40:14;10.30;99.90
4548;DHT22;2286;51.570;7.090;2023-04-25T08:42:42;10.40;99.90
4548;DHT22;2286;51.570;7.090;2023-04-25T08:45:09;10.40;99.90
4548;DHT22;2286;51.570;7.090;2023-04-25T08:47:38;10.60;99.90
4548;DHT22;2286;51.570;7.090;2023-04-25T08:50:07;10.70;99.90
4548;DHT22;2286;51.570;7.090;2023-04-25T08:52:37;10.70;99.90
4548;DHT22;2286;51.570;7.090;2023-04-25T08:55:06;10.90;99.90
4548;DHT22;2286;51.570;7.090;2023-04-25T08:57:34;10.90;99.90
4548;DHT22;2286;51.570;7.090;2023-04-25T09:00:01;11.00;99.90
4548;DHT22;2286;51.570;7.090;2023-04-25T09:02:29;11.10;99.90
4548;DHT22;2286;51.570;7.090;2023-04-25T09:04:56;11.20;99.90
4548;DHT22;2286;51.570;7.090;2023-04-25T09:07:25;11.10;99.90
4548;DHT22;2286;51.570;7.090;2023-04-25T09:09:51;11.10;99.90
4548;DHT22;2286;51.570;7.090;2023-04-25T09:12:18;11.10;99.90
4548;DHT22;2286;51.570;7.090;2023-04-25T09:15:02;11.30;99.90
4548;DHT22;2286;51.570;7.090;2023-04-25T09:17:29;11.30;99.90
4548;DHT22;2286;51.570;7.090;2023-04-25T09:20:05;10.90;99.90
4548;DHT22;2286;51.570;7.090;2023-04-25T09:22:34;10.90;99.90
4548;DHT22;2286;51.570;7.090;2023-04-25T09:25:02;11.20;99.90
4548;DHT22;2286;51.570;7.090;2023-04-25T09:27:30;11.40;99.90
4548;DHT22;2286;51.570;7.090;2023-04-25T09:29:58;11.60;99.90
4548;DHT22;2286;51.570;7.090;2023-04-25T09:32:26;12.00;99.90
4548;DHT22;2286;51.570;7.090;2023-04-25T09:34:54;11.90;99.90
4548;DHT22;2286;51.570;7.090;2023-04-25T09:37:21;12.00;99.90
4548;DHT22;2286;51.570;7.090;2023-04-25T09:39:53;12.00;99.90
4548;DHT22;2286;51.570;7.090;2023-04-25T09:42:22;12.00;99.90
4548;DHT22;2286;51.570;7.090;2023-04-25T09:44:51;12.10;99.90
4548;DHT22;2286;51.570;7.090;2023-04-25T09:47:19;12.40;99.90
4548;DHT22;2286;51.570;7.090;2023-04-25T09:49:47;12.30;99.90
4548;DHT22;2286;51.570;7.090;2023-04-25T09:52:15;12.30;99.90
4548;DHT22;2286;51.570;7.090;2023-04-25T09:54:43;12.50;99.90
4548;DHT22;2286;51.570;7.090;2023-04-25T09:57:13;12.70;99.90
4548;DHT22;2286;51.570;7.090;2023-04-25T09:59:44;12.60;99.90
4548;DHT22;2286;51.570;7.090;2023-04-25T10:02:12;12.90;99.90
4548;DHT22;2286;51.570;7.090;2023-04-25T10:04:39;13.00;99.90
4548;DHT22;2286;51.570;7.090;2023-04-25T10:07:08;13.10;99.90
4548;DHT22;2286;51.570;7.090;2023-04-25T10:09:37;12.70;99.90
4548;DHT22;2286;51.570;7.090;2023-04-25T10:12:05;12.60;99.90
4548;DHT22;2286;51.570;7.090;2023-04-25T10:14:34;12.20;99.90
4548;DHT22;2286;51.570;7.090;2023-04-25T10:17:01;11.90;99.90
4548;DHT22;2286;51.570;7.090;2023-04-25T10:19:28;11.90;99.90
4548;DHT22;2286;51.570;7.090;2023-04-25T10:22:04;11.80;99.90
4548;DHT22;2286;51.570;7.090;2023-04-25T10:24:32;11.90;99.90
4548;DHT22;2286;51.570;7.090;2023-04-25T10:27:00;11.80;99.90
4548;DHT22;2286;51.570;7.090;2023-04-25T10:29:27;11.50;99.90
4548;DHT22;2286;51.570;7.090;2023-04-25T10:31:55;11.10;99.90
4548;DHT22;2286;51.570;7.090;2023-04-25T10:34:38;10.90;99.90
4548;DHT22;2286;51.570;7.090;2023-04-25T10:37:09;10.60;99.90
4548;DHT22;2286;51.570;7.090;2023-04-25T10:39:36;10.40;99.90
4548;DHT22;2286;51.570;7.090;2023-04-25T10:42:04;10.20;99.90
4548;DHT22;2286;51.570;7.090;2023-04-25T10:44:32;10.00;99.90
4548;DHT22;2286;51.570;7.090;2023-04-25T10:47:01;9.90;99.90
4548;DHT22;2286;51.570;7.090;2023-04-25T10:49:30;9.70;1.00
4548;DHT22;2286;51.570;7.090;2023-04-25T10:52:19;9.50;99.90
4548;DHT22;2286;51.570;7.090;2023-04-25T10:54:52;9.00;1.00
4548;DHT22;2286;51.570;7.090;2023-04-25T10:57:35;8.80;1.00
4548;DHT22;2286;51.570;7.090;2023-04-25T11:00:07;8.70;1.00
4548;DHT22;2286;51.570;7.090;2023-04-25T11:02:45;8.80;1.00
4548;DHT22;2286;51.570;7.090;2023-04-25T11:05:27;9.00;99.90
4548;DHT22;2286;51.570;7.090;2023-04-25T11:07:56;9.30;99.90
4548;DHT22;2286;51.570;7.090;2023-04-25T11:10:25;9.40;99.90
4548;DHT22;2286;51.570;7.090;2023-04-25T11:12:52;9.60;99.90
4548;DHT22;2286;51.570;7.090;2023-04-25T11:15:19;9.70;1.00
4548;DHT22;2286;51.570;7.090;2023-04-25T11:17:48;10.00;1.00
4548;DHT22;2286;51.570;7.090;2023-04-25T11:20:15;10.20;1.00
4548;DHT22;2286;51.570;7.090;2023-04-25T11:22:46;10.70;1.00
4548;DHT22;2286;51.570;7.090;2023-04-25T11:25:15;11.10;99.90
4548;DHT22;2286;51.570;7.090;2023-04-25T11:27:52;11.20;99.90
4548;DHT22;2286;51.570;7.090;2023-04-25T11:30:21;11.50;99.90
4548;DHT22;2286;51.570;7.090;2023-04-25T11:32:49;12.10;99.90
4548;DHT22;2286;51.570;7.090;2023-04-25T11:35:17;13.00;99.90
4548;DHT22;2286;51.570;7.090;2023-04-25T11:37:44;13.70;99.90
4548;DHT22;2286;51.570;7.090;2023-04-25T11:40:11;13.90;99.90
4548;DHT22;2286;51.570;7.090;2023-04-25T11:42:39;14.60;99.90
4548;DHT22;2286;51.570;7.090;2023-04-25T11:45:06;15.80;99.90
4548;DHT22;2286;51.570;7.090;2023-04-25T11:47:34;16.90;99.90
4548;DHT22;2286;51.570;7.090;2023-04-25T11:50:03;18.10;99.90
4548;DHT22;2286;51.570;7.090;2023-04-25T11:52:38;18.60;99.90
4548;DHT22;2286;51.570;7.090;2023-04-25T11:55:07;19.40;99.90
4548;DHT22;2286;51.570;7.090;2023-04-25T11:57:34;20.00;99.90
4548;DHT22;2286;51.570;7.090;2023-04-25T12:00:12;20.60;99.90
4548;DHT22;2286;51.570;7.090;2023-04-25T12:02:41;20.40;99.90
4548;DHT22;2286;51.570;7.090;2023-04-25T12:05:10;19.60;99.90
4548;DHT22;2286;51.570;7.090;2023-04-25T12:07:39;19.90;99.90
4548;DHT22;2286;51.570;7.090;2023-04-25T12:10:09;21.10;99.90
4548;DHT22;2286;51.570;7.090;2023-04-25T12:12:37;21.70;99.90
4548;DHT22;2286;51.570;7.090;2023-04-25T12:15:12;21.50;99.90
4548;DHT22;2286;51.570;7.090;2023-04-25T12:17:41;19.90;99.90
4548;DHT22;2286;51.570;7.090;2023-04-25T12:20:12;18.60;99.90
4548;DHT22;2286;51.570;7.090;2023-04-25T12:22:41;17.20;99.90
4548;DHT22;2286;51.570;7.090;2023-04-25T12:25:10;16.60;99.90
4548;DHT22;2286;51.570;7.090;2023-04-25T12:27:37;16.00;99.90
4548;DHT22;2286;51.570;7.090;2023-04-25T12:30:06;15.10;99.90
4548;DHT22;2286;51.570;7.090;2023-04-25T12:32:33;14.40;99.90
4548;DHT22;2286;51.570;7.090;2023-04-25T12:35:00;13.90;99.90
4548;DHT22;2286;51.570;7.090;2023-04-25T12:37:29;13.40;99.90
4548;DHT22;2286;51.570;7.090;2023-04-25T12:39:56;13.10;99.90
4548;DHT22;2286;51.570;7.090;2023-04-25T12:42:23;12.60;99.90
4548;DHT22;2286;51.570;7.090;2023-04-25T12:44:50;12.20;99.90
4548;DHT22;2286;51.570;7.090;2023-04-25T12:47:17;12.30;99.90
4548;DHT22;2286;51.570;7.090;2023-04-25T12:49:44;12.20;99.90
4548;DHT22;2286;51.570;7.090;2023-04-25T12:52:11;12.10;99.90
4548;DHT22;2286;51.570;7.090;2023-04-25T12:54:39;12.10;99.90
4548;DHT22;2286;51.570;7.090;2023-04-25T12:57:06;12.10;99.90
4548;DHT22;2286;51.570;7.090;2023-04-25T12:59:33;12.50;99.90
4548;DHT22;2286;51.570;7.090;2023-04-25T13:01:59;13.40;99.90
4548;DHT22;2286;51.570;7.090;2023-04-25T13:04:26;14.00;99.90
4548;DHT22;2286;51.570;7.090;2023-04-25T13:06:53;13.60;99.90
4548;DHT22;2286;51.570;7.090;2023-04-25T13:09:20;13.20;99.90
4548;DHT22;2286;51.570;7.090;2023-04-25T13:11:48;12.60;99.90
4548;DHT22;2286;51.570;7.090;2023-04-25T13:14:15;12.30;99.90
4548;DHT22;2286;51.570;7.090;2023-04-25T13:16:42;11.80;99.90
4548;DHT22;2286;51.570;7.090;2023-04-25T13:19:09;11.70;99.90
4548;DHT22;2286;51.570;7.090;2023-04-25T13:21:36;11.50;99.90
4548;DHT22;2286;51.570;7.090;2023-04-25T13:24:04;11.30;99.90
4548;DHT22;2286;51.570;7.090;2023-04-25T13:26:31;11.30;99.90
4548;DHT22;2286;51.570;7.090;2023-04-25T13:28:59;11.40;99.90
4548;DHT22;2286;51.570;7.090;2023-04-25T13:31:28;11.70;99.90
4548;DHT22;2286;51.570;7.090;2023-04-25T13:33:55;12.00;99.90
4548;DHT22;2286;51.570;7.090;2023-04-25T13:36:22;12.00;99.90
4548;DHT22;2286;51.570;7.090;2023-04-25T13:38:49;12.60;99.90
4548;DHT22;2286;51.570;7.090;2023-04-25T13:41:15;13.20;99.90
4548;DHT22;2286;51.570;7.090;2023-04-25T13:43:44;15.20;99.90
4548;DHT22;2286;51.570;7.090;2023-04-25T13:46:14;17.40;99.90
4548;DHT22;2286;51.570;7.090;2023-04-25T13:48:42;18.40;99.90
4548;DHT22;2286;51.570;7.090;2023-04-25T13:51:13;19.70;99.90
4548;DHT22;2286;51.570;7.090;2023-04-25T13:53:41;19.70;99.90
4548;DHT22;2286;51.570;7.090;2023-04-25T13:56:07;20.00;99.90
4548;DHT22;2286;51.570;7.090;2023-04-25T13:58:34;21.10;99.90
4548;DHT22;2286;51.570;7.090;2023-04-25T14:01:01;22.30;99.90
4548;DHT22;2286;51.570;7.090;2023-04-25T14:03:30;21.00;99.90
4548;DHT22;2286;51.570;7.090;2023-04-25T14:05:57;20.60;99.90
4548;DHT22;2286;51.570;7.090;2023-04-25T14:08:23;18.90;99.90
4548;DHT22;2286;51.570;7.090;2023-04-25T14:10:51;19.80;99.90
4548;DHT22;2286;51.570;7.090;2023-04-25T14:13:18;20.90;99.90
4548;DHT22;2286;51.570;7.090;2023-04-25T14:15:45;21.90;99.90
4548;DHT22;2286;51.570;7.090;2023-04-25T14:18:12;22.70;99.90
4548;DHT22;2286;51.570;7.090;2023-04-25T14:20:40;21.80;99.90
4548;DHT22;2286;51.570;7.090;2023-04-25T14:23:07;22.90;99.90
4548;DHT22;2286;51.570;7.090;2023-04-25T14:25:34;23.90;99.90
4548;DHT22;2286;51.570;7.090;2023-04-25T14:28:01;22.80;99.90
4548;DHT22;2286;51.570;7.090;2023-04-25T14:30:27;23.90;99.90
4548;DHT22;2286;51.570;7.090;2023-04-25T14:32:54;24.80;99.90
4548;DHT22;2286;51.570;7.090;2023-04-25T14:35:21;25.30;99.90
4548;DHT22;2286;51.570;7.090;2023-04-25T14:37:49;23.10;99.90
4548;DHT22;2286;51.570;7.090;2023-04-25T14:40:16;20.90;99.90
4548;DHT22;2286;51.570;7.090;2023-04-25T14:42:43;19.50;99.90
4548;DHT22;2286;51.570;7.090;2023-04-25T14:45:11;18.20;99.90
4548;DHT22;2286;51.570;7.090;2023-04-25T14:47:38;17.00;99.90
4548;DHT22;2286;51.570;7.090;2023-04-25T14:50:06;16.30;99.90
4548;DHT22;2286;51.570;7.090;2023-04-25T14:52:34;15.30;99.90
4548;DHT22;2286;51.570;7.090;2023-04-25T14:55:02;14.40;99.90
4548;DHT22;2286;51.570;7.090;2023-04-25T14:57:30;14.30;99.90
4548;DHT22;2286;51.570;7.090;2023-04-25T14:59:57;13.90;99.90
4548;DHT22;2286;51.570;7.090;2023-04-25T15:02:24;14.10;99.90
4548;DHT22;2286;51.570;7.090;2023-04-25T15:04:51;14.80;99.90
4548;DHT22;2286;51.570;7.090;2023-04-25T15:07:18;15.20;99.90
4548;DHT22;2286;51.570;7.090;2023-04-25T15:09:45;15.70;99.90
4548;DHT22;2286;51.570;7.090;2023-04-25T15:12:13;16.00;99.90
4548;DHT22;2286;51.570;7.090;2023-04-25T15:14:40;16.70;99.90
4548;DHT22;2286;51.570;7.090;2023-04-25T15:17:06;18.10;99.90
4548;DHT22;2286;51.570;7.090;2023-04-25T15:19:33;19.10;99.90
4548;DHT22;2286;51.570;7.090;2023-04-25T15:22:00;20.20;99.90
4548;DHT22;2286;51.570;7.090;2023-04-25T15:24:28;20.80;99.90
4548;DHT22;2286;51.570;7.090;2023-04-25T15:26:55;21.80;99.90
4548;DHT22;2286;51.570;7.090;2023-04-25T15:29:25;22.30;99.90
4548;DHT22;2286;51.570;7.090;2023-04-25T15:31:52;22.50;99.90
4548;DHT22;2286;51.570;7.090;2023-04-25T15:34:19;22.90;99.90
4548;DHT22;2286;51.570;7.090;2023-04-25T15:36:46;23.50;99.90
4548;DHT22;2286;51.570;7.090;2023-04-25T15:39:13;23.00;99.90
4548;DHT22;2286;51.570;7.090;2023-04-25T15:41:40;23.70;99.90
4548;DHT22;2286;51.570;7.090;2023-04-25T15:44:07;25.20;99.90
4548;DHT22;2286;51.570;7.090;2023-04-25T15:46:37;23.70;99.90
4548;DHT22;2286;51.570;7.090;2023-04-25T15:49:03;19.40;99.90
4548;DHT22;2286;51.570;7.090;2023-04-25T15:51:30;17.60;99.90
4548;DHT22;2286;51.570;7.090;2023-04-25T15:53:58;17.80;99.90
4548;DHT22;2286;51.570;7.090;2023-04-25T15:56:26;17.40;99.90
4548;DHT22;2286;51.570;7.090;2023-04-25T15:58:53;17.40;99.90
4548;DHT22;2286;51.570;7.090;2023-04-25T16:01:20;18.20;99.90
4548;DHT22;2286;51.570;7.090;2023-04-25T16:03:50;19.20;99.90
4548;DHT22;2286;51.570;7.090;2023-04-25T16:06:17;19.80;99.90
4548;DHT22;2286;51.570;7.090;2023-04-25T16:08:44;21.10;99.90
4548;DHT22;2286;51.570;7.090;2023-04-25T16:11:11;23.40;99.90
4548;DHT22;2286;51.570;7.090;2023-04-25T16:13:39;24.70;99.90
4548;DHT22;2286;51.570;7.090;2023-04-25T16:16:06;26.20;99.90
4548;DHT22;2286;51.570;7.090;2023-04-25T16:18:33;26.60;99.90